sensor_id;sensor_type;location;lat;lon;timestamp;P1;durP1;ratioP1;P2;durP2;ratioP2
20022;SDS011;10172;42.054;24.546;2022-12-05T00:03:40;30.00;;;17.63;;
20022;SDS011;10172;42.054;24.546;2022-12-05T00:06:05;27.83;;;15.30;;
20022;SDS011;10172;42.054;24.546;2022-12-05T00:08:32;26.92;;;14.10;;
20022;SDS011;10172;42.054;24.546;2022-12-05T00:10:57;24.80;;;14.25;;
20022;SDS011;10172;42.054;24.546;2022-12-05T00:13:23;32.47;;;14.73;;
20022;SDS011;10172;42.054;24.546;2022-12-05T00:15:48;36.20;;;16.77;;
20022;SDS011;10172;42.054;24.546;2022-12-05T00:18:14;28.15;;;16.23;;
20022;SDS011;10172;42.054;24.546;2022-12-05T00:20:46;34.22;;;15.15;;
20022;SDS011;10172;42.054;24.546;2022-12-05T00:23:12;30.40;;;15.20;;
20022;SDS011;10172;42.054;24.546;2022-12-05T00:25:38;27.67;;;14.40;;
20022;SDS011;10172;42.054;24.546;2022-12-05T00:28:04;22.60;;;13.30;;
20022;SDS011;10172;42.054;24.546;2022-12-05T00:30:29;28.42;;;14.57;;
20022;SDS011;10172;42.054;24.546;2022-12-05T00:32:55;26.70;;;14.07;;
20022;SDS011;10172;42.054;24.546;2022-12-05T00:35:21;32.08;;;15.07;;
20022;SDS011;10172;42.054;24.546;2022-12-05T00:37:47;25.65;;;14.32;;
20022;SDS011;10172;42.054;24.546;2022-12-05T00:40:12;37.33;;;17.58;;
20022;SDS011;10172;42.054;24.546;2022-12-05T00:42:37;32.83;;;16.15;;
20022;SDS011;10172;42.054;24.546;2022-12-05T00:45:03;25.52;;;13.23;;
20022;SDS011;10172;42.054;24.546;2022-12-05T00:47:29;32.67;;;15.60;;
20022;SDS011;10172;42.054;24.546;2022-12-05T00:49:54;25.50;;;12.93;;
20022;SDS011;10172;42.054;24.546;2022-12-05T00:52:19;27.88;;;14.60;;
20022;SDS011;10172;42.054;24.546;2022-12-05T00:54:45;27.95;;;14.63;;
20022;SDS011;10172;42.054;24.546;2022-12-05T00:57:10;26.85;;;14.43;;
20022;SDS011;10172;42.054;24.546;2022-12-05T00:59:36;29.48;;;15.18;;
20022;SDS011;10172;42.054;24.546;2022-12-05T01:02:01;32.20;;;17.98;;
20022;SDS011;10172;42.054;24.546;2022-12-05T01:04:27;38.47;;;17.33;;
20022;SDS011;10172;42.054;24.546;2022-12-05T01:06:53;34.40;;;16.55;;
20022;SDS011;10172;42.054;24.546;2022-12-05T01:09:22;30.02;;;14.85;;
20022;SDS011;10172;42.054;24.546;2022-12-05T01:11:49;33.08;;;15.43;;
20022;SDS011;10172;42.054;24.546;2022-12-05T01:14:15;36.65;;;16.27;;
20022;SDS011;10172;42.054;24.546;2022-12-05T01:16:43;32.78;;;15.07;;
20022;SDS011;10172;42.054;24.546;2022-12-05T01:19:11;27.48;;;14.32;;
20022;SDS011;10172;42.054;24.546;2022-12-05T01:21:39;33.78;;;16.35;;
20022;SDS011;10172;42.054;24.546;2022-12-05T01:24:05;32.05;;;15.50;;
20022;SDS011;10172;42.054;24.546;2022-12-05T01:26:30;36.20;;;14.60;;
20022;SDS011;10172;42.054;24.546;2022-12-05T01:28:57;29.25;;;13.55;;
20022;SDS011;10172;42.054;24.546;2022-12-05T01:33:56;28.90;;;13.38;;
20022;SDS011;10172;42.054;24.546;2022-12-05T01:36:24;40.50;;;17.10;;
20022;SDS011;10172;42.054;24.546;2022-12-05T01:38:50;44.47;;;18.27;;
20022;SDS011;10172;42.054;24.546;2022-12-05T01:41:18;41.50;;;16.67;;
20022;SDS011;10172;42.054;24.546;2022-12-05T01:44:57;44.38;;;18.60;;
20022;SDS011;10172;42.054;24.546;2022-12-05T01:46:52;36.80;;;16.52;;
20022;SDS011;10172;42.054;24.546;2022-12-05T01:49:38;30.35;;;15.18;;
20022;SDS011;10172;42.054;24.546;2022-12-05T01:52:09;35.58;;;14.07;;
20022;SDS011;10172;42.054;24.546;2022-12-05T01:54:40;30.23;;;14.10;;
20022;SDS011;10172;42.054;24.546;2022-12-05T01:57:09;30.20;;;14.70;;
20022;SDS011;10172;42.054;24.546;2022-12-05T01:59:38;34.70;;;16.15;;
20022;SDS011;10172;42.054;24.546;2022-12-05T02:02:13;50.67;;;19.42;;
20022;SDS011;10172;42.054;24.546;2022-12-05T02:04:47;41.78;;;16.33;;
20022;SDS011;10172;42.054;24.546;2022-12-05T02:07:22;33.83;;;13.63;;
20022;SDS011;10172;42.054;24.546;2022-12-05T02:09:48;30.52;;;14.20;;
20022;SDS011;10172;42.054;24.546;2022-12-05T02:12:15;35.40;;;14.35;;
20022;SDS011;10172;42.054;24.546;2022-12-05T02:23:15;36.55;;;14.43;;
20022;SDS011;10172;42.054;24.546;2022-12-05T02:25:59;44.25;;;14.27;;
20022;SDS011;10172;42.054;24.546;2022-12-05T02:31:39;38.33;;;14.73;;
20022;SDS011;10172;42.054;24.546;2022-12-05T02:34:18;34.75;;;14.30;;
20022;SDS011;10172;42.054;24.546;2022-12-05T02:36:49;30.60;;;13.90;;
20022;SDS011;10172;42.054;24.546;2022-12-05T02:42:44;47.25;;;14.98;;
20022;SDS011;10172;42.054;24.546;2022-12-05T02:44:53;41.95;;;14.18;;
20022;SDS011;10172;42.054;24.546;2022-12-05T02:47:25;41.35;;;14.93;;
20022;SDS011;10172;42.054;24.546;2022-12-05T02:49:54;35.42;;;13.13;;
20022;SDS011;10172;42.054;24.546;2022-12-05T02:52:21;32.03;;;15.43;;
20022;SDS011;10172;42.054;24.546;2022-12-05T02:54:48;37.03;;;14.05;;
20022;SDS011;10172;42.054;24.546;2022-12-05T02:57:18;31.45;;;13.27;;
20022;SDS011;10172;42.054;24.546;2022-12-05T02:59:45;30.92;;;13.57;;
20022;SDS011;10172;42.054;24.546;2022-12-05T03:04:56;31.50;;;12.68;;
20022;SDS011;10172;42.054;24.546;2022-12-05T03:07:28;29.20;;;13.68;;
20022;SDS011;10172;42.054;24.546;2022-12-05T03:09:57;36.70;;;14.40;;
20022;SDS011;10172;42.054;24.546;2022-12-05T03:12:31;30.33;;;12.65;;
20022;SDS011;10172;42.054;24.546;2022-12-05T03:17:38;30.65;;;14.05;;
20022;SDS011;10172;42.054;24.546;2022-12-05T03:23:08;32.30;;;14.55;;
20022;SDS011;10172;42.054;24.546;2022-12-05T03:25:45;39.20;;;12.98;;
20022;SDS011;10172;42.054;24.546;2022-12-05T03:28:18;38.70;;;13.65;;
20022;SDS011;10172;42.054;24.546;2022-12-05T03:30:49;40.35;;;15.52;;
20022;SDS011;10172;42.054;24.546;2022-12-05T03:33:19;35.55;;;15.45;;
20022;SDS011;10172;42.054;24.546;2022-12-05T03:41:06;34.47;;;15.55;;
20022;SDS011;10172;42.054;24.546;2022-12-05T03:43:47;29.42;;;14.32;;
20022;SDS011;10172;42.054;24.546;2022-12-05T03:46:39;32.55;;;16.08;;
20022;SDS011;10172;42.054;24.546;2022-12-05T03:49:25;38.05;;;16.58;;
20022;SDS011;10172;42.054;24.546;2022-12-05T03:54:44;37.83;;;17.75;;
20022;SDS011;10172;42.054;24.546;2022-12-05T04:00:18;31.92;;;14.55;;
20022;SDS011;10172;42.054;24.546;2022-12-05T04:10:52;32.08;;;14.43;;
20022;SDS011;10172;42.054;24.546;2022-12-05T04:13:31;31.52;;;14.20;;
20022;SDS011;10172;42.054;24.546;2022-12-05T04:16:04;35.33;;;16.02;;
20022;SDS011;10172;42.054;24.546;2022-12-05T04:18:57;32.75;;;15.35;;
20022;SDS011;10172;42.054;24.546;2022-12-05T04:21:33;32.40;;;14.55;;
20022;SDS011;10172;42.054;24.546;2022-12-05T04:24:24;33.67;;;16.05;;
20022;SDS011;10172;42.054;24.546;2022-12-05T04:27:27;34.88;;;13.65;;
20022;SDS011;10172;42.054;24.546;2022-12-05T04:32:44;34.58;;;16.08;;
20022;SDS011;10172;42.054;24.546;2022-12-05T04:35:46;38.80;;;16.23;;
20022;SDS011;10172;42.054;24.546;2022-12-05T04:38:13;41.40;;;18.05;;
20022;SDS011;10172;42.054;24.546;2022-12-05T04:40:56;33.47;;;15.55;;
20022;SDS011;10172;42.054;24.546;2022-12-05T04:43:24;33.78;;;16.30;;
20022;SDS011;10172;42.054;24.546;2022-12-05T04:45:52;43.05;;;16.58;;
20022;SDS011;10172;42.054;24.546;2022-12-05T04:48:21;39.63;;;17.00;;
20022;SDS011;10172;42.054;24.546;2022-12-05T04:50:50;39.78;;;17.10;;
20022;SDS011;10172;42.054;24.546;2022-12-05T04:53:17;35.95;;;16.48;;
20022;SDS011;10172;42.054;24.546;2022-12-05T04:55:46;35.30;;;15.65;;
20022;SDS011;10172;42.054;24.546;2022-12-05T04:58:17;37.03;;;15.75;;
20022;SDS011;10172;42.054;24.546;2022-12-05T05:00:53;40.70;;;17.45;;
20022;SDS011;10172;42.054;24.546;2022-12-05T05:06:08;37.00;;;17.73;;
20022;SDS011;10172;42.054;24.546;2022-12-05T05:08:35;33.95;;;16.92;;
20022;SDS011;10172;42.054;24.546;2022-12-05T05:13:26;36.67;;;18.02;;
20022;SDS011;10172;42.054;24.546;2022-12-05T05:15:51;40.28;;;18.65;;
20022;SDS011;10172;42.054;24.546;2022-12-05T05:18:17;34.67;;;16.98;;
20022;SDS011;10172;42.054;24.546;2022-12-05T05:20:42;34.75;;;17.42;;
20022;SDS011;10172;42.054;24.546;2022-12-05T05:23:08;37.75;;;17.73;;
20022;SDS011;10172;42.054;24.546;2022-12-05T05:25:34;38.75;;;16.55;;
20022;SDS011;10172;42.054;24.546;2022-12-05T05:28:00;30.75;;;16.60;;
20022;SDS011;10172;42.054;24.546;2022-12-05T05:30:25;33.38;;;16.48;;
20022;SDS011;10172;42.054;24.546;2022-12-05T05:32:51;37.88;;;17.73;;
20022;SDS011;10172;42.054;24.546;2022-12-05T05:35:16;34.08;;;16.00;;
20022;SDS011;10172;42.054;24.546;2022-12-05T05:37:42;32.53;;;16.55;;
20022;SDS011;10172;42.054;24.546;2022-12-05T05:40:08;36.17;;;17.30;;
20022;SDS011;10172;42.054;24.546;2022-12-05T05:42:35;31.92;;;15.80;;
20022;SDS011;10172;42.054;24.546;2022-12-05T05:45:05;31.48;;;18.23;;
20022;SDS011;10172;42.054;24.546;2022-12-05T05:47:31;48.75;;;23.67;;
20022;SDS011;10172;42.054;24.546;2022-12-05T05:49:56;57.30;;;27.15;;
20022;SDS011;10172;42.054;24.546;2022-12-05T05:52:22;38.47;;;20.55;;
20022;SDS011;10172;42.054;24.546;2022-12-05T05:54:47;38.33;;;19.17;;
20022;SDS011;10172;42.054;24.546;2022-12-05T05:57:13;32.17;;;16.75;;
20022;SDS011;10172;42.054;24.546;2022-12-05T05:59:38;40.97;;;19.73;;
20022;SDS011;10172;42.054;24.546;2022-12-05T06:02:03;37.58;;;17.83;;
20022;SDS011;10172;42.054;24.546;2022-12-05T06:04:29;34.15;;;20.05;;
20022;SDS011;10172;42.054;24.546;2022-12-05T06:06:54;31.92;;;17.60;;
20022;SDS011;10172;42.054;24.546;2022-12-05T06:09:19;31.48;;;15.40;;
20022;SDS011;10172;42.054;24.546;2022-12-05T06:11:45;25.95;;;14.15;;
20022;SDS011;10172;42.054;24.546;2022-12-05T06:14:10;30.50;;;14.02;;
20022;SDS011;10172;42.054;24.546;2022-12-05T06:16:36;29.80;;;15.07;;
20022;SDS011;10172;42.054;24.546;2022-12-05T06:19:01;43.40;;;16.80;;
20022;SDS011;10172;42.054;24.546;2022-12-05T06:21:26;86.13;;;28.17;;
20022;SDS011;10172;42.054;24.546;2022-12-05T06:23:52;67.78;;;27.50;;
20022;SDS011;10172;42.054;24.546;2022-12-05T06:26:19;39.45;;;18.23;;
20022;SDS011;10172;42.054;24.546;2022-12-05T06:28:45;31.95;;;14.27;;
20022;SDS011;10172;42.054;24.546;2022-12-05T06:31:16;30.63;;;16.05;;
20022;SDS011;10172;42.054;24.546;2022-12-05T06:33:44;34.33;;;17.77;;
20022;SDS011;10172;42.054;24.546;2022-12-05T06:36:10;31.45;;;16.42;;
20022;SDS011;10172;42.054;24.546;2022-12-05T06:38:38;36.28;;;16.40;;
20022;SDS011;10172;42.054;24.546;2022-12-05T06:41:04;28.80;;;15.00;;
20022;SDS011;10172;42.054;24.546;2022-12-05T06:43:31;32.25;;;14.65;;
20022;SDS011;10172;42.054;24.546;2022-12-05T06:45:57;38.63;;;16.45;;
20022;SDS011;10172;42.054;24.546;2022-12-05T06:48:23;35.10;;;16.65;;
20022;SDS011;10172;42.054;24.546;2022-12-05T06:50:49;34.95;;;15.27;;
20022;SDS011;10172;42.054;24.546;2022-12-05T06:53:16;31.05;;;15.32;;
20022;SDS011;10172;42.054;24.546;2022-12-05T06:55:42;25.38;;;13.52;;
20022;SDS011;10172;42.054;24.546;2022-12-05T06:58:08;38.20;;;16.75;;
20022;SDS011;10172;42.054;24.546;2022-12-05T07:00:33;34.80;;;16.17;;
20022;SDS011;10172;42.054;24.546;2022-12-05T07:03:17;40.70;;;18.00;;
20022;SDS011;10172;42.054;24.546;2022-12-05T07:05:42;33.38;;;18.75;;
20022;SDS011;10172;42.054;24.546;2022-12-05T07:08:08;36.03;;;18.17;;
20022;SDS011;10172;42.054;24.546;2022-12-05T07:10:33;35.03;;;16.38;;
20022;SDS011;10172;42.054;24.546;2022-12-05T07:12:59;32.88;;;16.17;;
20022;SDS011;10172;42.054;24.546;2022-12-05T07:15:24;29.42;;;15.35;;
20022;SDS011;10172;42.054;24.546;2022-12-05T07:17:49;26.55;;;14.48;;
20022;SDS011;10172;42.054;24.546;2022-12-05T07:20:15;28.15;;;14.05;;
20022;SDS011;10172;42.054;24.546;2022-12-05T07:22:42;25.38;;;12.73;;
20022;SDS011;10172;42.054;24.546;2022-12-05T07:25:09;24.15;;;12.25;;
20022;SDS011;10172;42.054;24.546;2022-12-05T07:27:34;29.25;;;13.45;;
20022;SDS011;10172;42.054;24.546;2022-12-05T07:30:00;23.52;;;12.20;;
20022;SDS011;10172;42.054;24.546;2022-12-05T07:32:25;23.58;;;11.90;;
20022;SDS011;10172;42.054;24.546;2022-12-05T07:34:50;24.83;;;12.05;;
20022;SDS011;10172;42.054;24.546;2022-12-05T07:37:16;25.35;;;12.38;;
20022;SDS011;10172;42.054;24.546;2022-12-05T07:39:41;25.50;;;11.95;;
20022;SDS011;10172;42.054;24.546;2022-12-05T07:42:07;27.67;;;11.75;;
20022;SDS011;10172;42.054;24.546;2022-12-05T07:44:32;25.80;;;11.05;;
20022;SDS011;10172;42.054;24.546;2022-12-05T07:46:58;36.88;;;16.63;;
20022;SDS011;10172;42.054;24.546;2022-12-05T07:49:23;27.67;;;13.52;;
20022;SDS011;10172;42.054;24.546;2022-12-05T07:51:49;23.25;;;12.48;;
20022;SDS011;10172;42.054;24.546;2022-12-05T07:54:14;20.67;;;12.48;;
20022;SDS011;10172;42.054;24.546;2022-12-05T07:56:40;26.30;;;12.57;;
20022;SDS011;10172;42.054;24.546;2022-12-05T07:59:05;24.67;;;12.85;;
20022;SDS011;10172;42.054;24.546;2022-12-05T08:01:30;21.20;;;10.25;;
20022;SDS011;10172;42.054;24.546;2022-12-05T08:03:57;22.33;;;11.98;;
20022;SDS011;10172;42.054;24.546;2022-12-05T08:06:24;26.30;;;12.55;;
20022;SDS011;10172;42.054;24.546;2022-12-05T08:08:53;26.60;;;12.48;;
20022;SDS011;10172;42.054;24.546;2022-12-05T08:11:23;25.13;;;12.13;;
20022;SDS011;10172;42.054;24.546;2022-12-05T08:13:51;25.48;;;11.75;;
20022;SDS011;10172;42.054;24.546;2022-12-05T08:16:19;24.88;;;12.10;;
20022;SDS011;10172;42.054;24.546;2022-12-05T08:18:46;18.80;;;10.63;;
20022;SDS011;10172;42.054;24.546;2022-12-05T08:21:16;23.33;;;10.98;;
20022;SDS011;10172;42.054;24.546;2022-12-05T08:23:43;23.70;;;10.98;;
20022;SDS011;10172;42.054;24.546;2022-12-05T08:26:13;29.02;;;12.23;;
20022;SDS011;10172;42.054;24.546;2022-12-05T08:28:41;25.95;;;11.77;;
20022;SDS011;10172;42.054;24.546;2022-12-05T08:31:08;25.13;;;10.90;;
20022;SDS011;10172;42.054;24.546;2022-12-05T08:33:39;25.95;;;11.65;;
20022;SDS011;10172;42.054;24.546;2022-12-05T08:36:06;21.73;;;11.63;;
20022;SDS011;10172;42.054;24.546;2022-12-05T08:38:33;25.33;;;12.20;;
20022;SDS011;10172;42.054;24.546;2022-12-05T08:41:03;21.38;;;11.85;;
20022;SDS011;10172;42.054;24.546;2022-12-05T08:43:30;24.27;;;11.98;;
20022;SDS011;10172;42.054;24.546;2022-12-05T08:45:56;18.27;;;10.73;;
20022;SDS011;10172;42.054;24.546;2022-12-05T08:48:22;27.00;;;11.93;;
20022;SDS011;10172;42.054;24.546;2022-12-05T08:50:48;25.60;;;12.07;;
20022;SDS011;10172;42.054;24.546;2022-12-05T08:53:14;23.67;;;12.27;;
20022;SDS011;10172;42.054;24.546;2022-12-05T08:55:39;26.85;;;12.38;;
20022;SDS011;10172;42.054;24.546;2022-12-05T08:58:05;17.73;;;10.38;;
20022;SDS011;10172;42.054;24.546;2022-12-05T09:00:31;24.13;;;12.05;;
20022;SDS011;10172;42.054;24.546;2022-12-05T09:02:56;24.70;;;12.48;;
20022;SDS011;10172;42.054;24.546;2022-12-05T09:05:22;22.17;;;12.02;;
20022;SDS011;10172;42.054;24.546;2022-12-05T09:07:48;28.90;;;12.27;;
20022;SDS011;10172;42.054;24.546;2022-12-05T09:10:14;21.95;;;11.18;;
20022;SDS011;10172;42.054;24.546;2022-12-05T09:12:39;23.75;;;12.32;;
20022;SDS011;10172;42.054;24.546;2022-12-05T09:15:05;22.88;;;11.52;;
20022;SDS011;10172;42.054;24.546;2022-12-05T09:17:32;21.17;;;11.90;;
20022;SDS011;10172;42.054;24.546;2022-12-05T09:19:58;21.13;;;11.98;;
20022;SDS011;10172;42.054;24.546;2022-12-05T09:22:23;21.02;;;12.18;;
20022;SDS011;10172;42.054;24.546;2022-12-05T09:24:49;17.83;;;10.32;;
20022;SDS011;10172;42.054;24.546;2022-12-05T09:27:14;20.15;;;10.57;;
20022;SDS011;10172;42.054;24.546;2022-12-05T09:29:40;20.63;;;10.63;;
20022;SDS011;10172;42.054;24.546;2022-12-05T09:32:05;23.70;;;13.10;;
20022;SDS011;10172;42.054;24.546;2022-12-05T09:34:31;23.02;;;11.73;;
20022;SDS011;10172;42.054;24.546;2022-12-05T09:36:57;31.77;;;16.52;;
20022;SDS011;10172;42.054;24.546;2022-12-05T09:39:22;20.30;;;10.70;;
20022;SDS011;10172;42.054;24.546;2022-12-05T09:49:52;25.75;;;12.73;;
20022;SDS011;10172;42.054;24.546;2022-12-05T09:54:51;20.35;;;11.25;;
20022;SDS011;10172;42.054;24.546;2022-12-05T09:57:19;25.10;;;13.10;;
20022;SDS011;10172;42.054;24.546;2022-12-05T09:59:54;24.55;;;11.27;;
20022;SDS011;10172;42.054;24.546;2022-12-05T10:02:25;25.02;;;14.63;;
20022;SDS011;10172;42.054;24.546;2022-12-05T10:05:02;28.65;;;13.95;;
20022;SDS011;10172;42.054;24.546;2022-12-05T10:18:09;26.33;;;12.63;;
20022;SDS011;10172;42.054;24.546;2022-12-05T10:21:02;21.92;;;12.55;;
20022;SDS011;10172;42.054;24.546;2022-12-05T10:23:37;29.35;;;13.45;;
20022;SDS011;10172;42.054;24.546;2022-12-05T10:26:44;19.25;;;12.48;;
20022;SDS011;10172;42.054;24.546;2022-12-05T10:31:39;23.88;;;12.35;;
20022;SDS011;10172;42.054;24.546;2022-12-05T10:36:56;21.20;;;12.00;;
20022;SDS011;10172;42.054;24.546;2022-12-05T10:39:26;28.90;;;12.88;;
20022;SDS011;10172;42.054;24.546;2022-12-05T10:41:52;26.05;;;13.13;;
20022;SDS011;10172;42.054;24.546;2022-12-05T10:44:18;24.75;;;13.57;;
20022;SDS011;10172;42.054;24.546;2022-12-05T10:46:43;27.58;;;13.63;;
20022;SDS011;10172;42.054;24.546;2022-12-05T10:49:10;23.20;;;13.02;;
20022;SDS011;10172;42.054;24.546;2022-12-05T10:51:36;23.70;;;12.57;;
20022;SDS011;10172;42.054;24.546;2022-12-05T10:54:15;25.17;;;12.75;;
20022;SDS011;10172;42.054;24.546;2022-12-05T10:56:53;25.27;;;13.02;;
20022;SDS011;10172;42.054;24.546;2022-12-05T10:59:20;22.58;;;12.93;;
20022;SDS011;10172;42.054;24.546;2022-12-05T11:01:48;25.13;;;12.52;;
20022;SDS011;10172;42.054;24.546;2022-12-05T11:07:09;21.98;;;11.75;;
20022;SDS011;10172;42.054;24.546;2022-12-05T11:09:50;27.00;;;12.65;;
20022;SDS011;10172;42.054;24.546;2022-12-05T11:17:31;18.95;;;11.23;;
20022;SDS011;10172;42.054;24.546;2022-12-05T11:20:02;22.75;;;13.05;;
20022;SDS011;10172;42.054;24.546;2022-12-05T11:22:53;22.08;;;12.75;;
20022;SDS011;10172;42.054;24.546;2022-12-05T11:25:30;20.52;;;12.43;;
20022;SDS011;10172;42.054;24.546;2022-12-05T11:30:45;19.48;;;11.65;;
20022;SDS011;10172;42.054;24.546;2022-12-05T11:33:28;90.38;;;33.58;;
20022;SDS011;10172;42.054;24.546;2022-12-05T11:35:58;41.30;;;20.75;;
20022;SDS011;10172;42.054;24.546;2022-12-05T11:38:37;32.47;;;18.65;;
20022;SDS011;10172;42.054;24.546;2022-12-05T11:54:10;28.83;;;14.90;;
20022;SDS011;10172;42.054;24.546;2022-12-05T11:56:45;31.77;;;17.52;;
20022;SDS011;10172;42.054;24.546;2022-12-05T12:18:16;21.75;;;11.73;;
20022;SDS011;10172;42.054;24.546;2022-12-05T12:31:50;23.33;;;12.70;;
20022;SDS011;10172;42.054;24.546;2022-12-05T12:34:46;19.17;;;10.48;;
20022;SDS011;10172;42.054;24.546;2022-12-05T12:40:28;18.48;;;11.05;;
20022;SDS011;10172;42.054;24.546;2022-12-05T12:51:34;17.90;;;9.48;;
20022;SDS011;10172;42.054;24.546;2022-12-05T13:07:57;12.05;;;7.60;;
20022;SDS011;10172;42.054;24.546;2022-12-05T13:10:29;15.18;;;8.70;;
20022;SDS011;10172;42.054;24.546;2022-12-05T13:12:59;18.73;;;10.13;;
20022;SDS011;10172;42.054;24.546;2022-12-05T13:15:37;15.18;;;8.38;;
20022;SDS011;10172;42.054;24.546;2022-12-05T13:18:06;17.40;;;8.88;;
20022;SDS011;10172;42.054;24.546;2022-12-05T13:20:40;12.13;;;7.70;;
20022;SDS011;10172;42.054;24.546;2022-12-05T13:23:06;12.70;;;8.27;;
20022;SDS011;10172;42.054;24.546;2022-12-05T13:25:35;21.20;;;12.48;;
20022;SDS011;10172;42.054;24.546;2022-12-05T13:28:04;19.27;;;10.38;;
20022;SDS011;10172;42.054;24.546;2022-12-05T13:30:47;17.50;;;9.55;;
20022;SDS011;10172;42.054;24.546;2022-12-05T13:33:22;13.48;;;7.82;;
20022;SDS011;10172;42.054;24.546;2022-12-05T13:35:53;17.17;;;9.90;;
20022;SDS011;10172;42.054;24.546;2022-12-05T13:38:39;29.30;;;14.05;;
20022;SDS011;10172;42.054;24.546;2022-12-05T13:41:43;43.55;;;22.98;;
20022;SDS011;10172;42.054;24.546;2022-12-05T13:44:34;19.50;;;11.27;;
20022;SDS011;10172;42.054;24.546;2022-12-05T13:47:00;16.73;;;9.15;;
20022;SDS011;10172;42.054;24.546;2022-12-05T13:52:17;15.10;;;8.20;;
20022;SDS011;10172;42.054;24.546;2022-12-05T13:54:50;17.75;;;8.82;;
20022;SDS011;10172;42.054;24.546;2022-12-05T14:12:58;16.60;;;10.05;;
20022;SDS011;10172;42.054;24.546;2022-12-05T14:15:50;17.33;;;10.93;;
20022;SDS011;10172;42.054;24.546;2022-12-05T14:19:00;20.50;;;11.02;;
20022;SDS011;10172;42.054;24.546;2022-12-05T14:32:24;36.72;;;20.58;;
20022;SDS011;10172;42.054;24.546;2022-12-05T14:37:26;30.20;;;17.95;;
20022;SDS011;10172;42.054;24.546;2022-12-05T14:40:42;25.80;;;16.30;;
20022;SDS011;10172;42.054;24.546;2022-12-05T14:42:50;29.30;;;17.17;;
20022;SDS011;10172;42.054;24.546;2022-12-05T14:45:22;48.05;;;25.08;;
20022;SDS011;10172;42.054;24.546;2022-12-05T14:47:54;23.27;;;13.00;;
20022;SDS011;10172;42.054;24.546;2022-12-05T14:56:00;22.92;;;14.43;;
20022;SDS011;10172;42.054;24.546;2022-12-05T14:58:48;26.95;;;14.57;;
20022;SDS011;10172;42.054;24.546;2022-12-05T15:01:22;25.17;;;13.48;;
20022;SDS011;10172;42.054;24.546;2022-12-05T15:06:43;28.67;;;15.00;;
20022;SDS011;10172;42.054;24.546;2022-12-05T15:17:49;28.00;;;17.52;;
20022;SDS011;10172;42.054;24.546;2022-12-05T15:26:11;31.23;;;16.85;;
20022;SDS011;10172;42.054;24.546;2022-12-05T15:29:09;39.97;;;23.77;;
20022;SDS011;10172;42.054;24.546;2022-12-05T15:31:59;45.67;;;24.80;;
20022;SDS011;10172;42.054;24.546;2022-12-05T15:40:11;25.38;;;14.27;;
20022;SDS011;10172;42.054;24.546;2022-12-05T15:45:19;33.40;;;18.23;;
20022;SDS011;10172;42.054;24.546;2022-12-05T15:53:12;33.53;;;13.07;;
20022;SDS011;10172;42.054;24.546;2022-12-05T15:56:00;25.15;;;12.20;;
20022;SDS011;10172;42.054;24.546;2022-12-05T15:58:34;53.38;;;41.42;;
20022;SDS011;10172;42.054;24.546;2022-12-05T16:01:06;21.75;;;13.65;;
20022;SDS011;10172;42.054;24.546;2022-12-05T16:03:45;18.48;;;10.88;;
20022;SDS011;10172;42.054;24.546;2022-12-05T16:08:56;57.22;;;30.98;;
20022;SDS011;10172;42.054;24.546;2022-12-05T16:11:23;66.95;;;40.45;;
20022;SDS011;10172;42.054;24.546;2022-12-05T16:13:50;54.58;;;32.10;;
20022;SDS011;10172;42.054;24.546;2022-12-05T16:16:20;31.80;;;19.23;;
20022;SDS011;10172;42.054;24.546;2022-12-05T16:18:55;21.63;;;12.40;;
20022;SDS011;10172;42.054;24.546;2022-12-05T16:21:29;24.60;;;13.60;;
20022;SDS011;10172;42.054;24.546;2022-12-05T16:24:01;24.35;;;12.82;;
20022;SDS011;10172;42.054;24.546;2022-12-05T16:26:34;27.48;;;16.70;;
20022;SDS011;10172;42.054;24.546;2022-12-05T16:29:01;41.20;;;22.80;;
20022;SDS011;10172;42.054;24.546;2022-12-05T16:31:28;46.13;;;25.02;;
20022;SDS011;10172;42.054;24.546;2022-12-05T16:34:03;34.13;;;20.25;;
20022;SDS011;10172;42.054;24.546;2022-12-05T16:36:30;37.55;;;20.33;;
20022;SDS011;10172;42.054;24.546;2022-12-05T16:39:03;37.83;;;24.77;;
20022;SDS011;10172;42.054;24.546;2022-12-05T16:41:32;29.05;;;19.98;;
20022;SDS011;10172;42.054;24.546;2022-12-05T16:43:59;30.80;;;18.42;;
20022;SDS011;10172;42.054;24.546;2022-12-05T16:54:38;27.80;;;15.75;;
20022;SDS011;10172;42.054;24.546;2022-12-05T16:57:04;24.25;;;12.77;;
20022;SDS011;10172;42.054;24.546;2022-12-05T16:59:31;20.40;;;12.90;;
20022;SDS011;10172;42.054;24.546;2022-12-05T17:01:56;20.27;;;12.15;;
20022;SDS011;10172;42.054;24.546;2022-12-05T17:04:22;22.02;;;12.95;;
20022;SDS011;10172;42.054;24.546;2022-12-05T17:06:47;33.05;;;20.52;;
20022;SDS011;10172;42.054;24.546;2022-12-05T17:09:13;43.03;;;30.48;;
20022;SDS011;10172;42.054;24.546;2022-12-05T17:11:39;39.70;;;24.33;;
20022;SDS011;10172;42.054;24.546;2022-12-05T17:14:08;52.92;;;32.20;;
20022;SDS011;10172;42.054;24.546;2022-12-05T17:16:38;36.05;;;19.95;;
20022;SDS011;10172;42.054;24.546;2022-12-05T17:19:03;21.23;;;12.50;;
20022;SDS011;10172;42.054;24.546;2022-12-05T17:21:30;26.25;;;12.32;;
20022;SDS011;10172;42.054;24.546;2022-12-05T17:23:57;23.20;;;11.20;;
20022;SDS011;10172;42.054;24.546;2022-12-05T17:26:23;37.78;;;21.98;;
20022;SDS011;10172;42.054;24.546;2022-12-05T17:28:49;34.72;;;19.48;;
20022;SDS011;10172;42.054;24.546;2022-12-05T17:31:15;22.13;;;11.73;;
20022;SDS011;10172;42.054;24.546;2022-12-05T17:33:43;43.80;;;21.75;;
20022;SDS011;10172;42.054;24.546;2022-12-05T17:36:10;37.88;;;22.33;;
20022;SDS011;10172;42.054;24.546;2022-12-05T17:38:35;24.48;;;13.40;;
20022;SDS011;10172;42.054;24.546;2022-12-05T17:41:01;24.38;;;14.07;;
20022;SDS011;10172;42.054;24.546;2022-12-05T17:43:26;22.65;;;12.00;;
20022;SDS011;10172;42.054;24.546;2022-12-05T17:45:52;25.63;;;11.93;;
20022;SDS011;10172;42.054;24.546;2022-12-05T17:48:19;35.55;;;17.17;;
20022;SDS011;10172;42.054;24.546;2022-12-05T17:50:45;58.65;;;32.47;;
20022;SDS011;10172;42.054;24.546;2022-12-05T17:55:44;49.05;;;27.15;;
20022;SDS011;10172;42.054;24.546;2022-12-05T17:58:14;90.30;;;45.35;;
20022;SDS011;10172;42.054;24.546;2022-12-05T18:00:41;69.53;;;32.47;;
20022;SDS011;10172;42.054;24.546;2022-12-05T18:03:10;103.63;;;39.78;;
20022;SDS011;10172;42.054;24.546;2022-12-05T18:05:38;52.85;;;24.58;;
20022;SDS011;10172;42.054;24.546;2022-12-05T18:08:07;51.45;;;24.35;;
20022;SDS011;10172;42.054;24.546;2022-12-05T18:10:33;54.03;;;21.80;;
20022;SDS011;10172;42.054;24.546;2022-12-05T18:12:59;40.53;;;20.08;;
20022;SDS011;10172;42.054;24.546;2022-12-05T18:15:24;32.78;;;18.20;;
20022;SDS011;10172;42.054;24.546;2022-12-05T18:17:50;35.40;;;18.40;;
20022;SDS011;10172;42.054;24.546;2022-12-05T18:20:15;28.27;;;16.55;;
20022;SDS011;10172;42.054;24.546;2022-12-05T18:22:40;30.70;;;17.40;;
20022;SDS011;10172;42.054;24.546;2022-12-05T18:25:08;30.35;;;15.95;;
20022;SDS011;10172;42.054;24.546;2022-12-05T18:27:34;28.98;;;14.75;;